sensor_id;sensor_type;location;lat;lon;timestamp;P1;durP1;ratioP1;P2;durP2;ratioP2
65853;SDS011;52627;48.838;2.402;2022-12-18T00:01:29;41.20;;;21.80;;
65853;SDS011;52627;48.838;2.402;2022-12-18T00:06:28;43.80;;;22.60;;
65853;SDS011;52627;48.838;2.402;2022-12-18T00:08:57;41.60;;;23.20;;
65853;SDS011;52627;48.838;2.402;2022-12-18T00:11:27;45.30;;;23.30;;
65853;SDS011;52627;48.838;2.402;2022-12-18T00:16:27;44.20;;;22.40;;
65853;SDS011;52627;48.838;2.402;2022-12-18T00:18:56;42.90;;;21.60;;
65853;SDS011;52627;48.838;2.402;2022-12-18T00:21:28;43.10;;;22.60;;
65853;SDS011;52627;48.838;2.402;2022-12-18T00:23:57;38.70;;;20.70;;
65853;SDS011;52627;48.838;2.402;2022-12-18T00:26:28;39.10;;;20.20;;
65853;SDS011;52627;48.838;2.402;2022-12-18T00:29:02;41.00;;;21.00;;
65853;SDS011;52627;48.838;2.402;2022-12-18T00:31:32;40.00;;;21.10;;
65853;SDS011;52627;48.838;2.402;2022-12-18T00:34:00;38.90;;;21.00;;
65853;SDS011;52627;48.838;2.402;2022-12-18T00:36:31;42.40;;;21.30;;
65853;SDS011;52627;48.838;2.402;2022-12-18T00:39:04;39.40;;;21.20;;
65853;SDS011;52627;48.838;2.402;2022-12-18T00:41:32;40.00;;;20.60;;
65853;SDS011;52627;48.838;2.402;2022-12-18T00:44:19;41.20;;;20.20;;
65853;SDS011;52627;48.838;2.402;2022-12-18T00:46:47;38.10;;;20.00;;
65853;SDS011;52627;48.838;2.402;2022-12-18T00:49:17;40.00;;;20.60;;
65853;SDS011;52627;48.838;2.402;2022-12-18T00:51:46;43.90;;;22.70;;
65853;SDS011;52627;48.838;2.402;2022-12-18T00:54:15;38.40;;;20.80;;
65853;SDS011;52627;48.838;2.402;2022-12-18T00:56:43;40.70;;;20.90;;
65853;SDS011;52627;48.838;2.402;2022-12-18T00:59:17;39.60;;;19.80;;
65853;SDS011;52627;48.838;2.402;2022-12-18T01:01:45;41.00;;;22.00;;
65853;SDS011;52627;48.838;2.402;2022-12-18T01:04:14;37.40;;;20.00;;
65853;SDS011;52627;48.838;2.402;2022-12-18T01:06:42;39.30;;;19.90;;
65853;SDS011;52627;48.838;2.402;2022-12-18T01:09:10;38.60;;;21.20;;
65853;SDS011;52627;48.838;2.402;2022-12-18T01:11:38;39.30;;;20.90;;
65853;SDS011;52627;48.838;2.402;2022-12-18T01:14:05;37.40;;;19.80;;
65853;SDS011;52627;48.838;2.402;2022-12-18T01:16:33;37.60;;;20.10;;
65853;SDS011;52627;48.838;2.402;2022-12-18T01:19:01;42.00;;;21.50;;
65853;SDS011;52627;48.838;2.402;2022-12-18T01:21:28;39.00;;;20.40;;
65853;SDS011;52627;48.838;2.402;2022-12-18T01:23:56;41.00;;;20.50;;
65853;SDS011;52627;48.838;2.402;2022-12-18T01:26:24;37.30;;;20.40;;
65853;SDS011;52627;48.838;2.402;2022-12-18T01:28:54;37.80;;;19.30;;
65853;SDS011;52627;48.838;2.402;2022-12-18T01:31:28;36.20;;;19.60;;
65853;SDS011;52627;48.838;2.402;2022-12-18T01:33:57;36.60;;;19.80;;
65853;SDS011;52627;48.838;2.402;2022-12-18T01:36:29;39.70;;;20.10;;
65853;SDS011;52627;48.838;2.402;2022-12-18T01:39:05;38.00;;;18.80;;
65853;SDS011;52627;48.838;2.402;2022-12-18T01:41:34;37.90;;;19.10;;
65853;SDS011;52627;48.838;2.402;2022-12-18T01:47:32;36.50;;;20.30;;
65853;SDS011;52627;48.838;2.402;2022-12-18T01:52:47;34.10;;;19.50;;
65853;SDS011;52627;48.838;2.402;2022-12-18T01:55:19;39.60;;;20.20;;
65853;SDS011;52627;48.838;2.402;2022-12-18T01:57:49;34.40;;;19.30;;
65853;SDS011;52627;48.838;2.402;2022-12-18T02:00:21;39.70;;;19.80;;
65853;SDS011;52627;48.838;2.402;2022-12-18T02:02:49;36.00;;;19.10;;
65853;SDS011;52627;48.838;2.402;2022-12-18T02:05:53;38.20;;;19.20;;
65853;SDS011;52627;48.838;2.402;2022-12-18T02:14:42;33.50;;;18.90;;
65853;SDS011;52627;48.838;2.402;2022-12-18T02:17:20;35.00;;;19.00;;
65853;SDS011;52627;48.838;2.402;2022-12-18T02:20:04;33.40;;;18.60;;
65853;SDS011;52627;48.838;2.402;2022-12-18T02:28:40;35.70;;;19.40;;
65853;SDS011;52627;48.838;2.402;2022-12-18T02:31:13;36.10;;;18.70;;
65853;SDS011;52627;48.838;2.402;2022-12-18T02:33:44;36.60;;;19.40;;
65853;SDS011;52627;48.838;2.402;2022-12-18T02:36:14;40.20;;;20.10;;
65853;SDS011;52627;48.838;2.402;2022-12-18T02:38:44;35.10;;;19.00;;
65853;SDS011;52627;48.838;2.402;2022-12-18T02:41:13;36.80;;;20.30;;
65853;SDS011;52627;48.838;2.402;2022-12-18T02:43:48;35.50;;;18.70;;
65853;SDS011;52627;48.838;2.402;2022-12-18T02:46:30;38.50;;;19.80;;
65853;SDS011;52627;48.838;2.402;2022-12-18T02:52:00;35.50;;;19.50;;
65853;SDS011;52627;48.838;2.402;2022-12-18T03:00:28;35.90;;;20.20;;
65853;SDS011;52627;48.838;2.402;2022-12-18T03:05:57;36.70;;;21.20;;
65853;SDS011;52627;48.838;2.402;2022-12-18T03:08:33;38.00;;;20.90;;
65853;SDS011;52627;48.838;2.402;2022-12-18T03:11:08;35.50;;;20.10;;
65853;SDS011;52627;48.838;2.402;2022-12-18T03:13:42;35.90;;;20.10;;
65853;SDS011;52627;48.838;2.402;2022-12-18T03:16:16;37.20;;;20.30;;
65853;SDS011;52627;48.838;2.402;2022-12-18T03:18:51;36.50;;;22.00;;
65853;SDS011;52627;48.838;2.402;2022-12-18T03:21:29;38.20;;;21.20;;
65853;SDS011;52627;48.838;2.402;2022-12-18T03:24:11;38.40;;;20.30;;
65853;SDS011;52627;48.838;2.402;2022-12-18T03:26:42;36.70;;;20.00;;
65853;SDS011;52627;48.838;2.402;2022-12-18T03:29:17;40.00;;;20.50;;
65853;SDS011;52627;48.838;2.402;2022-12-18T03:31:51;38.80;;;20.70;;
65853;SDS011;52627;48.838;2.402;2022-12-18T03:34:28;37.50;;;20.60;;
65853;SDS011;52627;48.838;2.402;2022-12-18T03:36:58;37.60;;;20.00;;
65853;SDS011;52627;48.838;2.402;2022-12-18T03:39:25;36.80;;;19.50;;
65853;SDS011;52627;48.838;2.402;2022-12-18T03:44:29;36.50;;;20.50;;
65853;SDS011;52627;48.838;2.402;2022-12-18T03:47:09;36.30;;;19.80;;
65853;SDS011;52627;48.838;2.402;2022-12-18T03:52:49;37.10;;;20.10;;
65853;SDS011;52627;48.838;2.402;2022-12-18T03:55:19;43.10;;;21.40;;
65853;SDS011;52627;48.838;2.402;2022-12-18T03:57:49;41.40;;;20.70;;
65853;SDS011;52627;48.838;2.402;2022-12-18T04:00:18;38.80;;;20.20;;
65853;SDS011;52627;48.838;2.402;2022-12-18T04:02:50;36.50;;;20.00;;
65853;SDS011;52627;48.838;2.402;2022-12-18T04:05:20;39.20;;;20.10;;
65853;SDS011;52627;48.838;2.402;2022-12-18T04:07:50;39.00;;;21.10;;
65853;SDS011;52627;48.838;2.402;2022-12-18T04:10:19;40.10;;;20.50;;
65853;SDS011;52627;48.838;2.402;2022-12-18T04:12:47;38.50;;;19.70;;
65853;SDS011;52627;48.838;2.402;2022-12-18T04:15:14;40.40;;;20.60;;
65853;SDS011;52627;48.838;2.402;2022-12-18T04:17:51;39.40;;;20.20;;
65853;SDS011;52627;48.838;2.402;2022-12-18T04:20:18;38.30;;;19.90;;
65853;SDS011;52627;48.838;2.402;2022-12-18T04:22:46;42.90;;;21.10;;
65853;SDS011;52627;48.838;2.402;2022-12-18T04:25:14;35.80;;;19.90;;
65853;SDS011;52627;48.838;2.402;2022-12-18T04:27:42;37.70;;;20.30;;
65853;SDS011;52627;48.838;2.402;2022-12-18T04:30:10;37.40;;;20.40;;
65853;SDS011;52627;48.838;2.402;2022-12-18T04:32:38;36.20;;;20.30;;
65853;SDS011;52627;48.838;2.402;2022-12-18T04:35:05;36.30;;;19.00;;
65853;SDS011;52627;48.838;2.402;2022-12-18T04:37:37;41.70;;;21.00;;
65853;SDS011;52627;48.838;2.402;2022-12-18T04:40:05;36.90;;;20.20;;
65853;SDS011;52627;48.838;2.402;2022-12-18T04:42:33;38.00;;;19.90;;
65853;SDS011;52627;48.838;2.402;2022-12-18T04:45:00;36.70;;;19.30;;
65853;SDS011;52627;48.838;2.402;2022-12-18T04:47:28;34.90;;;18.80;;
65853;SDS011;52627;48.838;2.402;2022-12-18T04:49:55;39.30;;;20.00;;
65853;SDS011;52627;48.838;2.402;2022-12-18T04:52:23;38.70;;;20.50;;
65853;SDS011;52627;48.838;2.402;2022-12-18T04:54:50;40.00;;;21.10;;
65853;SDS011;52627;48.838;2.402;2022-12-18T04:57:18;36.60;;;19.90;;
65853;SDS011;52627;48.838;2.402;2022-12-18T04:59:45;34.80;;;20.30;;
65853;SDS011;52627;48.838;2.402;2022-12-18T05:02:13;38.30;;;20.50;;
65853;SDS011;52627;48.838;2.402;2022-12-18T05:04:40;37.60;;;20.20;;
65853;SDS011;52627;48.838;2.402;2022-12-18T05:07:08;33.60;;;20.10;;
65853;SDS011;52627;48.838;2.402;2022-12-18T05:09:35;37.30;;;19.30;;
65853;SDS011;52627;48.838;2.402;2022-12-18T05:12:02;38.20;;;20.20;;
65853;SDS011;52627;48.838;2.402;2022-12-18T05:14:30;37.90;;;20.10;;
65853;SDS011;52627;48.838;2.402;2022-12-18T05:16:57;38.50;;;21.00;;
65853;SDS011;52627;48.838;2.402;2022-12-18T05:19:27;36.20;;;20.10;;
65853;SDS011;52627;48.838;2.402;2022-12-18T05:21:54;38.10;;;19.80;;
65853;SDS011;52627;48.838;2.402;2022-12-18T05:24:22;36.60;;;20.30;;
65853;SDS011;52627;48.838;2.402;2022-12-18T05:26:49;37.10;;;19.20;;
65853;SDS011;52627;48.838;2.402;2022-12-18T05:29:17;35.70;;;19.50;;
65853;SDS011;52627;48.838;2.402;2022-12-18T05:31:44;35.50;;;19.00;;
65853;SDS011;52627;48.838;2.402;2022-12-18T05:34:12;37.80;;;20.00;;
65853;SDS011;52627;48.838;2.402;2022-12-18T05:36:40;37.50;;;19.90;;
65853;SDS011;52627;48.838;2.402;2022-12-18T05:39:08;35.90;;;19.20;;
65853;SDS011;52627;48.838;2.402;2022-12-18T05:41:36;36.80;;;20.50;;
65853;SDS011;52627;48.838;2.402;2022-12-18T05:44:03;37.00;;;20.40;;
65853;SDS011;52627;48.838;2.402;2022-12-18T05:46:32;38.40;;;20.30;;
65853;SDS011;52627;48.838;2.402;2022-12-18T05:49:00;38.20;;;21.10;;
65853;SDS011;52627;48.838;2.402;2022-12-18T05:51:28;34.40;;;19.90;;
65853;SDS011;52627;48.838;2.402;2022-12-18T05:53:55;37.00;;;20.20;;
65853;SDS011;52627;48.838;2.402;2022-12-18T05:56:23;34.20;;;20.50;;
65853;SDS011;52627;48.838;2.402;2022-12-18T05:58:52;36.10;;;19.70;;
65853;SDS011;52627;48.838;2.402;2022-12-18T06:01:25;34.00;;;19.20;;
65853;SDS011;52627;48.838;2.402;2022-12-18T06:03:54;38.50;;;21.00;;
65853;SDS011;52627;48.838;2.402;2022-12-18T06:06:25;36.30;;;20.40;;
65853;SDS011;52627;48.838;2.402;2022-12-18T06:08:54;38.80;;;21.60;;
65853;SDS011;52627;48.838;2.402;2022-12-18T06:11:24;35.60;;;18.80;;
65853;SDS011;52627;48.838;2.402;2022-12-18T06:13:54;40.20;;;21.90;;
65853;SDS011;52627;48.838;2.402;2022-12-18T06:16:26;36.90;;;19.80;;
65853;SDS011;52627;48.838;2.402;2022-12-18T06:19:03;35.20;;;19.70;;
65853;SDS011;52627;48.838;2.402;2022-12-18T06:21:31;34.20;;;19.30;;
65853;SDS011;52627;48.838;2.402;2022-12-18T06:23:59;33.50;;;19.00;;
65853;SDS011;52627;48.838;2.402;2022-12-18T06:26:27;36.30;;;19.60;;
65853;SDS011;52627;48.838;2.402;2022-12-18T06:28:55;33.60;;;18.40;;
65853;SDS011;52627;48.838;2.402;2022-12-18T06:31:22;34.40;;;19.70;;
65853;SDS011;52627;48.838;2.402;2022-12-18T06:33:50;35.70;;;19.80;;
65853;SDS011;52627;48.838;2.402;2022-12-18T06:36:17;33.50;;;18.50;;
65853;SDS011;52627;48.838;2.402;2022-12-18T06:38:45;36.10;;;20.30;;
65853;SDS011;52627;48.838;2.402;2022-12-18T06:41:16;37.00;;;19.80;;
65853;SDS011;52627;48.838;2.402;2022-12-18T06:43:46;38.20;;;20.80;;
65853;SDS011;52627;48.838;2.402;2022-12-18T06:46:13;36.50;;;20.40;;
65853;SDS011;52627;48.838;2.402;2022-12-18T06:48:41;36.50;;;20.40;;
65853;SDS011;52627;48.838;2.402;2022-12-18T06:51:08;34.30;;;19.10;;
65853;SDS011;52627;48.838;2.402;2022-12-18T06:53:36;34.80;;;19.10;;
65853;SDS011;52627;48.838;2.402;2022-12-18T06:56:06;36.50;;;19.60;;
65853;SDS011;52627;48.838;2.402;2022-12-18T06:58:38;37.30;;;20.40;;
65853;SDS011;52627;48.838;2.402;2022-12-18T07:01:08;38.20;;;18.90;;
65853;SDS011;52627;48.838;2.402;2022-12-18T07:03:38;38.50;;;19.50;;
65853;SDS011;52627;48.838;2.402;2022-12-18T07:06:15;40.10;;;20.00;;
65853;SDS011;52627;48.838;2.402;2022-12-18T07:08:46;36.30;;;19.00;;
65853;SDS011;52627;48.838;2.402;2022-12-18T07:11:14;35.80;;;18.90;;
65853;SDS011;52627;48.838;2.402;2022-12-18T07:13:43;34.10;;;19.50;;
65853;SDS011;52627;48.838;2.402;2022-12-18T07:16:17;39.80;;;19.60;;
65853;SDS011;52627;48.838;2.402;2022-12-18T07:18:52;34.70;;;19.90;;
65853;SDS011;52627;48.838;2.402;2022-12-18T07:21:22;35.30;;;20.10;;
65853;SDS011;52627;48.838;2.402;2022-12-18T07:23:51;34.40;;;17.70;;
65853;SDS011;52627;48.838;2.402;2022-12-18T07:26:20;36.70;;;19.20;;
65853;SDS011;52627;48.838;2.402;2022-12-18T07:28:49;33.80;;;18.90;;
65853;SDS011;52627;48.838;2.402;2022-12-18T07:31:19;32.80;;;18.10;;
65853;SDS011;52627;48.838;2.402;2022-12-18T07:33:49;36.40;;;19.10;;
65853;SDS011;52627;48.838;2.402;2022-12-18T07:36:18;38.00;;;19.80;;
65853;SDS011;52627;48.838;2.402;2022-12-18T07:38:47;37.10;;;19.90;;
65853;SDS011;52627;48.838;2.402;2022-12-18T07:41:15;36.00;;;19.50;;
65853;SDS011;52627;48.838;2.402;2022-12-18T07:43:43;36.10;;;19.50;;
65853;SDS011;52627;48.838;2.402;2022-12-18T07:46:12;36.20;;;19.50;;
65853;SDS011;52627;48.838;2.402;2022-12-18T07:48:43;38.30;;;19.50;;
65853;SDS011;52627;48.838;2.402;2022-12-18T07:51:17;40.10;;;20.80;;
65853;SDS011;52627;48.838;2.402;2022-12-18T07:53:45;35.00;;;19.50;;
65853;SDS011;52627;48.838;2.402;2022-12-18T07:56:18;36.80;;;19.80;;
65853;SDS011;52627;48.838;2.402;2022-12-18T07:58:56;35.40;;;18.80;;
65853;SDS011;52627;48.838;2.402;2022-12-18T08:01:25;34.80;;;19.00;;
65853;SDS011;52627;48.838;2.402;2022-12-18T08:03:52;33.40;;;18.90;;
65853;SDS011;52627;48.838;2.402;2022-12-18T08:06:20;34.90;;;19.20;;
65853;SDS011;52627;48.838;2.402;2022-12-18T08:08:54;34.80;;;19.50;;
65853;SDS011;52627;48.838;2.402;2022-12-18T08:11:23;34.20;;;18.10;;
65853;SDS011;52627;48.838;2.402;2022-12-18T08:13:52;34.20;;;19.20;;
65853;SDS011;52627;48.838;2.402;2022-12-18T08:16:21;33.10;;;18.30;;
65853;SDS011;52627;48.838;2.402;2022-12-18T08:18:51;34.10;;;18.20;;
65853;SDS011;52627;48.838;2.402;2022-12-18T08:21:23;35.90;;;19.30;;
65853;SDS011;52627;48.838;2.402;2022-12-18T08:23:55;36.00;;;19.40;;
65853;SDS011;52627;48.838;2.402;2022-12-18T08:26:26;36.50;;;20.30;;
65853;SDS011;52627;48.838;2.402;2022-12-18T08:28:56;37.60;;;20.30;;
65853;SDS011;52627;48.838;2.402;2022-12-18T08:31:25;34.30;;;19.10;;
65853;SDS011;52627;48.838;2.402;2022-12-18T08:33:54;35.20;;;18.40;;
65853;SDS011;52627;48.838;2.402;2022-12-18T08:36:24;35.90;;;18.90;;
65853;SDS011;52627;48.838;2.402;2022-12-18T08:38:53;33.20;;;16.90;;
65853;SDS011;52627;48.838;2.402;2022-12-18T08:41:20;30.70;;;16.90;;
65853;SDS011;52627;48.838;2.402;2022-12-18T08:43:48;34.50;;;18.80;;
65853;SDS011;52627;48.838;2.402;2022-12-18T08:46:40;33.50;;;18.80;;
65853;SDS011;52627;48.838;2.402;2022-12-18T08:49:09;35.30;;;18.10;;
65853;SDS011;52627;48.838;2.402;2022-12-18T08:51:39;32.60;;;19.00;;
65853;SDS011;52627;48.838;2.402;2022-12-18T08:54:07;37.60;;;19.60;;
65853;SDS011;52627;48.838;2.402;2022-12-18T08:56:34;35.40;;;19.00;;
65853;SDS011;52627;48.838;2.402;2022-12-18T08:59:02;37.00;;;20.20;;
65853;SDS011;52627;48.838;2.402;2022-12-18T09:01:30;37.30;;;20.20;;
65853;SDS011;52627;48.838;2.402;2022-12-18T09:03:58;35.30;;;19.60;;
65853;SDS011;52627;48.838;2.402;2022-12-18T09:06:25;36.90;;;18.90;;
65853;SDS011;52627;48.838;2.402;2022-12-18T09:08:53;37.70;;;18.80;;
65853;SDS011;52627;48.838;2.402;2022-12-18T09:11:26;36.50;;;19.80;;
65853;SDS011;52627;48.838;2.402;2022-12-18T09:13:55;40.40;;;20.10;;
65853;SDS011;52627;48.838;2.402;2022-12-18T09:16:26;35.10;;;18.40;;
65853;SDS011;52627;48.838;2.402;2022-12-18T09:18:59;35.60;;;19.10;;
65853;SDS011;52627;48.838;2.402;2022-12-18T09:21:29;37.80;;;18.50;;
65853;SDS011;52627;48.838;2.402;2022-12-18T09:24:04;30.90;;;17.80;;
65853;SDS011;52627;48.838;2.402;2022-12-18T09:26:35;37.50;;;19.80;;
65853;SDS011;52627;48.838;2.402;2022-12-18T09:29:03;33.70;;;17.80;;
65853;SDS011;52627;48.838;2.402;2022-12-18T09:31:31;36.10;;;19.00;;
65853;SDS011;52627;48.838;2.402;2022-12-18T09:33:58;37.30;;;18.50;;
65853;SDS011;52627;48.838;2.402;2022-12-18T09:36:26;37.80;;;19.40;;
65853;SDS011;52627;48.838;2.402;2022-12-18T09:38:53;38.00;;;19.40;;
65853;SDS011;52627;48.838;2.402;2022-12-18T09:47:34;32.30;;;18.50;;
65853;SDS011;52627;48.838;2.402;2022-12-18T09:50:14;36.80;;;19.30;;
65853;SDS011;52627;48.838;2.402;2022-12-18T09:52:51;36.20;;;18.80;;
65853;SDS011;52627;48.838;2.402;2022-12-18T09:55:31;39.80;;;19.40;;
65853;SDS011;52627;48.838;2.402;2022-12-18T09:58:15;40.70;;;20.00;;
65853;SDS011;52627;48.838;2.402;2022-12-18T10:00:43;39.20;;;21.60;;
65853;SDS011;52627;48.838;2.402;2022-12-18T10:03:13;39.00;;;19.40;;
65853;SDS011;52627;48.838;2.402;2022-12-18T10:14:09;37.20;;;19.30;;
65853;SDS011;52627;48.838;2.402;2022-12-18T10:20:38;34.60;;;18.10;;
65853;SDS011;52627;48.838;2.402;2022-12-18T10:23:22;36.10;;;17.20;;
65853;SDS011;52627;48.838;2.402;2022-12-18T10:28:32;40.30;;;19.30;;
65853;SDS011;52627;48.838;2.402;2022-12-18T10:31:21;37.20;;;18.50;;
65853;SDS011;52627;48.838;2.402;2022-12-18T10:33:53;37.20;;;18.30;;
65853;SDS011;52627;48.838;2.402;2022-12-18T10:36:23;34.80;;;19.20;;
65853;SDS011;52627;48.838;2.402;2022-12-18T10:38:51;33.10;;;16.80;;
65853;SDS011;52627;48.838;2.402;2022-12-18T10:44:21;33.90;;;17.90;;
65853;SDS011;52627;48.838;2.402;2022-12-18T10:46:54;33.40;;;15.90;;
65853;SDS011;52627;48.838;2.402;2022-12-18T10:49:27;33.90;;;16.90;;
65853;SDS011;52627;48.838;2.402;2022-12-18T10:54:52;37.70;;;17.00;;
65853;SDS011;52627;48.838;2.402;2022-12-18T10:57:34;38.80;;;19.30;;
65853;SDS011;52627;48.838;2.402;2022-12-18T11:00:33;33.80;;;17.60;;
65853;SDS011;52627;48.838;2.402;2022-12-18T11:03:02;36.40;;;17.30;;
65853;SDS011;52627;48.838;2.402;2022-12-18T11:05:36;37.40;;;17.40;;
65853;SDS011;52627;48.838;2.402;2022-12-18T11:08:04;35.40;;;16.30;;
65853;SDS011;52627;48.838;2.402;2022-12-18T11:10:35;33.80;;;17.60;;
65853;SDS011;52627;48.838;2.402;2022-12-18T11:13:22;33.90;;;16.00;;
65853;SDS011;52627;48.838;2.402;2022-12-18T11:15:52;35.80;;;18.00;;
65853;SDS011;52627;48.838;2.402;2022-12-18T11:18:32;30.50;;;16.20;;
65853;SDS011;52627;48.838;2.402;2022-12-18T11:21:07;36.10;;;17.60;;
65853;SDS011;52627;48.838;2.402;2022-12-18T11:23:37;34.70;;;16.80;;
65853;SDS011;52627;48.838;2.402;2022-12-18T11:26:16;32.50;;;15.30;;
65853;SDS011;52627;48.838;2.402;2022-12-18T11:28:46;33.70;;;16.60;;
65853;SDS011;52627;48.838;2.402;2022-12-18T11:31:20;33.20;;;15.60;;
65853;SDS011;52627;48.838;2.402;2022-12-18T11:36:52;32.50;;;15.50;;
65853;SDS011;52627;48.838;2.402;2022-12-18T11:42:55;33.40;;;16.30;;
65853;SDS011;52627;48.838;2.402;2022-12-18T11:45:31;32.30;;;15.50;;
65853;SDS011;52627;48.838;2.402;2022-12-18T11:48:14;32.20;;;16.20;;
65853;SDS011;52627;48.838;2.402;2022-12-18T11:50:50;35.80;;;17.00;;
65853;SDS011;52627;48.838;2.402;2022-12-18T11:53:24;33.70;;;15.80;;
65853;SDS011;52627;48.838;2.402;2022-12-18T11:59:14;31.70;;;15.70;;
65853;SDS011;52627;48.838;2.402;2022-12-18T12:11:20;34.70;;;17.30;;
65853;SDS011;52627;48.838;2.402;2022-12-18T12:16:58;33.20;;;17.80;;
65853;SDS011;52627;48.838;2.402;2022-12-18T12:19:39;36.20;;;16.40;;
65853;SDS011;52627;48.838;2.402;2022-12-18T12:25:13;35.30;;;17.20;;
65853;SDS011;52627;48.838;2.402;2022-12-18T12:39:38;35.30;;;16.20;;
65853;SDS011;52627;48.838;2.402;2022-12-18T12:42:31;33.30;;;16.60;;
65853;SDS011;52627;48.838;2.402;2022-12-18T12:45:34;34.20;;;16.10;;
65853;SDS011;52627;48.838;2.402;2022-12-18T12:48:19;44.60;;;20.40;;
65853;SDS011;52627;48.838;2.402;2022-12-18T12:50:53;42.40;;;20.00;;
65853;SDS011;52627;48.838;2.402;2022-12-18T12:53:26;39.60;;;18.90;;
65853;SDS011;52627;48.838;2.402;2022-12-18T12:55:57;35.80;;;17.50;;
65853;SDS011;52627;48.838;2.402;2022-12-18T13:07:14;36.10;;;17.20;;
65853;SDS011;52627;48.838;2.402;2022-12-18T13:10:23;32.30;;;15.80;;
65853;SDS011;52627;48.838;2.402;2022-12-18T13:13:15;33.60;;;15.50;;
65853;SDS011;52627;48.838;2.402;2022-12-18T13:16:05;34.00;;;15.80;;
65853;SDS011;52627;48.838;2.402;2022-12-18T13:18:34;31.50;;;16.30;;
65853;SDS011;52627;48.838;2.402;2022-12-18T13:21:30;36.70;;;17.30;;
65853;SDS011;52627;48.838;2.402;2022-12-18T13:24:23;31.00;;;16.20;;
65853;SDS011;52627;48.838;2.402;2022-12-18T13:26:53;36.00;;;17.20;;
65853;SDS011;52627;48.838;2.402;2022-12-18T13:29:42;33.90;;;16.90;;
65853;SDS011;52627;48.838;2.402;2022-12-18T13:32:21;30.20;;;16.10;;
65853;SDS011;52627;48.838;2.402;2022-12-18T13:37:57;31.20;;;16.40;;
65853;SDS011;52627;48.838;2.402;2022-12-18T13:45:49;32.90;;;17.60;;
65853;SDS011;52627;48.838;2.402;2022-12-18T13:48:54;34.30;;;16.90;;
65853;SDS011;52627;48.838;2.402;2022-12-18T13:51:24;32.30;;;16.40;;
65853;SDS011;52627;48.838;2.402;2022-12-18T13:54:24;34.20;;;15.50;;
65853;SDS011;52627;48.838;2.402;2022-12-18T13:57:31;29.90;;;15.70;;
65853;SDS011;52627;48.838;2.402;2022-12-18T14:00:26;33.00;;;16.20;;
65853;SDS011;52627;48.838;2.402;2022-12-18T14:02:59;31.00;;;16.00;;
65853;SDS011;52627;48.838;2.402;2022-12-18T14:05:30;31.40;;;16.50;;
65853;SDS011;52627;48.838;2.402;2022-12-18T14:08:02;29.50;;;15.50;;
65853;SDS011;52627;48.838;2.402;2022-12-18T14:10:32;33.90;;;17.70;;
65853;SDS011;52627;48.838;2.402;2022-12-18T14:13:29;31.40;;;15.70;;
65853;SDS011;52627;48.838;2.402;2022-12-18T14:16:01;34.30;;;17.70;;
65853;SDS011;52627;48.838;2.402;2022-12-18T14:18:34;36.20;;;17.30;;
65853;SDS011;52627;48.838;2.402;2022-12-18T14:21:18;29.90;;;15.40;;
65853;SDS011;52627;48.838;2.402;2022-12-18T14:23:48;31.00;;;15.60;;
65853;SDS011;52627;48.838;2.402;2022-12-18T14:26:26;33.30;;;16.40;;
65853;SDS011;52627;48.838;2.402;2022-12-18T14:28:58;31.10;;;15.80;;
65853;SDS011;52627;48.838;2.402;2022-12-18T14:31:30;31.90;;;16.40;;
65853;SDS011;52627;48.838;2.402;2022-12-18T14:33:58;31.50;;;15.80;;
65853;SDS011;52627;48.838;2.402;2022-12-18T14:36:28;29.50;;;16.20;;
65853;SDS011;52627;48.838;2.402;2022-12-18T14:38:57;33.00;;;18.70;;
65853;SDS011;52627;48.838;2.402;2022-12-18T14:41:26;33.10;;;18.00;;
65853;SDS011;52627;48.838;2.402;2022-12-18T14:44:05;32.30;;;17.10;;
65853;SDS011;52627;48.838;2.402;2022-12-18T14:46:38;27.60;;;14.70;;
65853;SDS011;52627;48.838;2.402;2022-12-18T14:49:26;33.80;;;16.50;;
65853;SDS011;52627;48.838;2.402;2022-12-18T14:51:59;35.30;;;16.10;;
65853;SDS011;52627;48.838;2.402;2022-12-18T14:54:28;31.20;;;15.60;;
65853;SDS011;52627;48.838;2.402;2022-12-18T14:57:01;28.80;;;15.40;;
65853;SDS011;52627;48.838;2.402;2022-12-18T14:59:31;26.90;;;15.60;;
65853;SDS011;52627;48.838;2.402;2022-12-18T15:07:52;31.90;;;16.10;;
65853;SDS011;52627;48.838;2.402;2022-12-18T15:10:25;30.60;;;15.30;;
65853;SDS011;52627;48.838;2.402;2022-12-18T15:18:01;28.20;;;15.20;;
65853;SDS011;52627;48.838;2.402;2022-12-18T15:20:55;29.60;;;15.20;;
65853;SDS011;52627;48.838;2.402;2022-12-18T15:26:07;27.30;;;14.40;;
65853;SDS011;52627;48.838;2.402;2022-12-18T15:28:39;26.90;;;14.60;;
65853;SDS011;52627;48.838;2.402;2022-12-18T15:33:42;28.40;;;14.10;;
65853;SDS011;52627;48.838;2.402;2022-12-18T15:36:30;28.50;;;15.60;;
65853;SDS011;52627;48.838;2.402;2022-12-18T15:38:58;38.50;;;16.40;;
65853;SDS011;52627;48.838;2.402;2022-12-18T15:41:34;28.60;;;15.30;;
65853;SDS011;52627;48.838;2.402;2022-12-18T15:44:15;27.90;;;14.20;;
65853;SDS011;52627;48.838;2.402;2022-12-18T15:46:50;26.10;;;13.50;;
65853;SDS011;52627;48.838;2.402;2022-12-18T15:49:18;28.20;;;14.90;;
65853;SDS011;52627;48.838;2.402;2022-12-18T15:51:49;26.40;;;13.80;;
65853;SDS011;52627;48.838;2.402;2022-12-18T15:54:24;32.60;;;15.30;;
65853;SDS011;52627;48.838;2.402;2022-12-18T15:57:11;26.60;;;13.80;;
65853;SDS011;52627;48.838;2.402;2022-12-18T15:59:53;28.00;;;13.70;;
65853;SDS011;52627;48.838;2.402;2022-12-18T16:02:23;25.60;;;13.40;;
65853;SDS011;52627;48.838;2.402;2022-12-18T16:04:52;28.70;;;14.00;;
65853;SDS011;52627;48.838;2.402;2022-12-18T16:07:20;30.70;;;15.10;;
65853;SDS011;52627;48.838;2.402;2022-12-18T16:09:51;27.20;;;14.30;;
65853;SDS011;52627;48.838;2.402;2022-12-18T16:12:21;25.00;;;13.20;;
65853;SDS011;52627;48.838;2.402;2022-12-18T16:14:49;27.70;;;13.10;;
65853;SDS011;52627;48.838;2.402;2022-12-18T16:17:17;28.60;;;14.10;;
65853;SDS011;52627;48.838;2.402;2022-12-18T16:19:45;32.20;;;14.30;;
65853;SDS011;52627;48.838;2.402;2022-12-18T16:22:18;27.70;;;13.60;;
65853;SDS011;52627;48.838;2.402;2022-12-18T16:24:55;29.10;;;14.10;;
65853;SDS011;52627;48.838;2.402;2022-12-18T16:27:24;28.30;;;14.70;;
65853;SDS011;52627;48.838;2.402;2022-12-18T16:29:51;26.70;;;14.10;;
65853;SDS011;52627;48.838;2.402;2022-12-18T16:32:20;28.00;;;14.90;;
65853;SDS011;52627;48.838;2.402;2022-12-18T16:34:49;26.90;;;13.70;;
65853;SDS011;52627;48.838;2.402;2022-12-18T16:37:17;25.10;;;13.60;;
65853;SDS011;52627;48.838;2.402;2022-12-18T16:39:44;26.70;;;13.90;;
65853;SDS011;52627;48.838;2.402;2022-12-18T16:42:17;27.10;;;13.70;;
65853;SDS011;52627;48.838;2.402;2022-12-18T16:44:48;23.90;;;14.40;;
65853;SDS011;52627;48.838;2.402;2022-12-18T16:47:16;25.80;;;14.70;;
65853;SDS011;52627;48.838;2.402;2022-12-18T16:49:44;26.70;;;15.30;;
65853;SDS011;52627;48.838;2.402;2022-12-18T16:52:12;28.10;;;14.40;;
65853;SDS011;52627;48.838;2.402;2022-12-18T16:54:40;28.30;;;14.40;;
65853;SDS011;52627;48.838;2.402;2022-12-18T16:57:12;28.50;;;15.60;;
65853;SDS011;52627;48.838;2.402;2022-12-18T16:59:41;29.20;;;14.90;;
65853;SDS011;52627;48.838;2.402;2022-12-18T17:02:16;27.70;;;14.90;;
65853;SDS011;52627;48.838;2.402;2022-12-18T17:04:53;27.50;;;15.30;;
65853;SDS011;52627;48.838;2.402;2022-12-18T17:07:23;30.40;;;15.90;;
65853;SDS011;52627;48.838;2.402;2022-12-18T17:09:51;30.70;;;15.50;;